Airfield :
LOGIN :

Register | Disclaimer

   EN    FR    IT 

 










Legend :    VFR   Marginal VFR   IFR   Intensive IFR   Very Intensive IFR
Visi :
Ceiling :
>= 8 km
>= 3000ft
5 to 8 km
1000 to 3000 ft
1500m to 5 km
500 to 1000 ft
800 to 1500m
200 to 500 ft
< 800m
< 200 ft
Symbols :   Thunderstorms  Fog  Heavy snow  Heavy precipitations  Wind > 20 kt
SIGMETs :     Misc.  Thunderstorms  Icing  Turbulence  Mountain Waves  Volcanic Ashes






- Airport Elevation : 56 ft
- IATA code : TRD


ENVA - Trondheim , Værnes

CURRENT METAR :
  • 012020Z 26023KT 9999 FEW016 BKN029 03/00 Q0992 RMK WIND 670FT 27022KT

EXPIRED METARs :
  • 011950Z 25014G25KT 9999 FEW016 BKN025 OVC074 03/01 Q0992 RMK WIND 670FT 26014G28KT
  • 011920Z 24015KT 9999 -RA BKN020 OVC026 03/01 Q0992 TEMPO SHRA RMK WIND 670FT 25014KT
  • 011850Z 25017KT 9999 -RA FEW018 BKN032 03/01 Q0992 TEMPO SHRA RMK WIND 670FT 25013G27KT
  • 011820Z 25024KT 9999 -RA FEW014 BKN023 BKN029 03/01 Q0992 TEMPO SHRA RMK WIND 670FT 26023G34KT
  • 011750Z 24016KT 9999 VCSH FEW017 SCT025 BKN058 04/01 Q0992 TEMPO SHRA RMK WIND 670FT 25015G28KT

TAF TAF ENVA
Valid from the 01 at 18:00 until the 02 at 18:00 UTC


0118/0218 26015KT 9999 -SHRA FEW020TCU BKN040
TEMPO 0118/0124 27018G28KT 4000 SHRASN BKN014CB
BECMG 0123/0202 14008KT
TEMPO 0204/0218 1200 SHSNGS VV011



MET'MAP, your aeronautical weather chart ! - Copyright ORBIFLY December 2007 - Disclaimer

ORBIFLY MET'MAP TEAM :

Programming & Development : Alexandra Zaïnal
Concept & original design : Baudouin d'Aumeries
Assistance for programming : Marc-Olivier Méhu
Technical & hardware support : Manuel Goepfert

Contact : metmap@orbifly.com




SOURCES & CREDITS :

   NOAA